Weather at Sandpoint Airport

Public forecast

Using degrees Fahrenheit for public forecast. Weather courtesy of forecast.io.

Current aviation weather report (METAR) for Sandpoint Airport

Retrieved 2021/04/14 19:15 UTC (0 seconds ago):

KSZT 141915Z AUTO 03016G23KT 10SM CLR 15/M06 A3016 RMK AO2

Closest aviation forecast (TAF) to Sandpoint Airport

Closest forecast is Coeur D'Alene - Pappy Boyington Field, 33.2 nm (61.5 km) SSW. Retrieved 2021/04/14 18:42 UTC (32 minutes ago):

TAF KCOE 141739Z 1418/1518 03022G29KT P6SM FEW100 FM150000 05022G30KT P6SM FEW250 FM150200 04016KT P6SM SKC FM151200 03007KT P6SM SKC